sensor_id;sensor_type;location;lat;lon;timestamp;P1;durP1;ratioP1;P2;durP2;ratioP2
26484;SDS011;18083;50.560;7.262;2023-06-10T00:01:41;12.80;;;10.85;;
26484;SDS011;18083;50.560;7.262;2023-06-10T00:04:09;12.05;;;10.75;;
26484;SDS011;18083;50.560;7.262;2023-06-10T00:06:36;16.12;;;10.75;;
26484;SDS011;18083;50.560;7.262;2023-06-10T00:09:04;12.45;;;11.15;;
26484;SDS011;18083;50.560;7.262;2023-06-10T00:11:32;12.65;;;10.35;;
26484;SDS011;18083;50.560;7.262;2023-06-10T00:13:59;11.18;;;10.08;;
26484;SDS011;18083;50.560;7.262;2023-06-10T00:16:27;13.78;;;11.33;;
26484;SDS011;18083;50.560;7.262;2023-06-10T00:18:55;11.97;;;10.38;;
26484;SDS011;18083;50.560;7.262;2023-06-10T00:21:24;15.08;;;11.68;;
26484;SDS011;18083;50.560;7.262;2023-06-10T00:23:52;16.95;;;11.30;;
26484;SDS011;18083;50.560;7.262;2023-06-10T00:26:24;14.07;;;10.55;;
26484;SDS011;18083;50.560;7.262;2023-06-10T00:28:52;12.65;;;11.03;;
26484;SDS011;18083;50.560;7.262;2023-06-10T00:31:19;12.80;;;11.48;;
26484;SDS011;18083;50.560;7.262;2023-06-10T00:33:47;13.53;;;11.95;;
26484;SDS011;18083;50.560;7.262;2023-06-10T00:36:14;15.90;;;11.30;;
26484;SDS011;18083;50.560;7.262;2023-06-10T00:38:41;12.47;;;10.53;;
26484;SDS011;18083;50.560;7.262;2023-06-10T00:41:08;12.63;;;11.22;;
26484;SDS011;18083;50.560;7.262;2023-06-10T00:43:36;12.82;;;11.35;;
26484;SDS011;18083;50.560;7.262;2023-06-10T00:46:03;13.30;;;10.43;;
26484;SDS011;18083;50.560;7.262;2023-06-10T00:48:30;13.22;;;11.90;;
26484;SDS011;18083;50.560;7.262;2023-06-10T00:50:58;12.60;;;11.35;;
26484;SDS011;18083;50.560;7.262;2023-06-10T00:53:26;11.97;;;10.78;;
26484;SDS011;18083;50.560;7.262;2023-06-10T00:55:54;13.05;;;11.75;;
26484;SDS011;18083;50.560;7.262;2023-06-10T00:58:22;11.40;;;10.40;;
26484;SDS011;18083;50.560;7.262;2023-06-10T01:00:50;12.43;;;11.22;;
26484;SDS011;18083;50.560;7.262;2023-06-10T01:03:17;15.53;;;11.57;;
26484;SDS011;18083;50.560;7.262;2023-06-10T01:05:46;12.88;;;10.93;;
26484;SDS011;18083;50.560;7.262;2023-06-10T01:08:28;14.30;;;11.08;;
26484;SDS011;18083;50.560;7.262;2023-06-10T01:10:55;14.10;;;12.35;;
26484;SDS011;18083;50.560;7.262;2023-06-10T01:13:25;13.05;;;11.73;;
26484;SDS011;18083;50.560;7.262;2023-06-10T01:15:54;12.23;;;10.98;;
26484;SDS011;18083;50.560;7.262;2023-06-10T01:18:22;14.50;;;12.10;;
26484;SDS011;18083;50.560;7.262;2023-06-10T01:20:49;16.32;;;11.90;;
26484;SDS011;18083;50.560;7.262;2023-06-10T01:23:18;11.93;;;10.75;;
26484;SDS011;18083;50.560;7.262;2023-06-10T01:26:03;11.90;;;10.70;;
26484;SDS011;18083;50.560;7.262;2023-06-10T01:28:53;13.25;;;10.88;;
26484;SDS011;18083;50.560;7.262;2023-06-10T01:32:05;14.78;;;13.03;;
26484;SDS011;18083;50.560;7.262;2023-06-10T01:33:50;18.17;;;12.80;;
26484;SDS011;18083;50.560;7.262;2023-06-10T01:36:17;15.85;;;11.25;;
26484;SDS011;18083;50.560;7.262;2023-06-10T01:38:46;12.73;;;11.45;;
26484;SDS011;18083;50.560;7.262;2023-06-10T01:41:15;11.95;;;10.70;;
26484;SDS011;18083;50.560;7.262;2023-06-10T01:43:43;13.35;;;11.65;;
26484;SDS011;18083;50.560;7.262;2023-06-10T01:46:11;11.08;;;10.08;;
26484;SDS011;18083;50.560;7.262;2023-06-10T01:48:38;17.82;;;12.73;;
26484;SDS011;18083;50.560;7.262;2023-06-10T01:51:06;11.97;;;10.82;;
26484;SDS011;18083;50.560;7.262;2023-06-10T01:53:33;12.93;;;11.20;;
26484;SDS011;18083;50.560;7.262;2023-06-10T01:56:00;12.70;;;11.40;;
26484;SDS011;18083;50.560;7.262;2023-06-10T01:58:27;13.45;;;11.00;;
26484;SDS011;18083;50.560;7.262;2023-06-10T02:00:55;14.25;;;11.22;;
26484;SDS011;18083;50.560;7.262;2023-06-10T02:03:22;16.52;;;13.58;;
26484;SDS011;18083;50.560;7.262;2023-06-10T02:05:49;15.35;;;11.53;;
26484;SDS011;18083;50.560;7.262;2023-06-10T02:08:17;12.03;;;10.75;;
26484;SDS011;18083;50.560;7.262;2023-06-10T02:10:44;11.85;;;10.65;;
26484;SDS011;18083;50.560;7.262;2023-06-10T02:13:11;13.32;;;10.90;;
26484;SDS011;18083;50.560;7.262;2023-06-10T02:15:39;14.05;;;11.50;;
26484;SDS011;18083;50.560;7.262;2023-06-10T02:18:06;18.02;;;12.95;;
26484;SDS011;18083;50.560;7.262;2023-06-10T02:20:33;13.45;;;11.03;;
26484;SDS011;18083;50.560;7.262;2023-06-10T02:23:01;13.70;;;11.25;;
26484;SDS011;18083;50.560;7.262;2023-06-10T02:25:28;12.93;;;11.22;;
26484;SDS011;18083;50.560;7.262;2023-06-10T02:27:55;13.00;;;11.70;;
26484;SDS011;18083;50.560;7.262;2023-06-10T02:30:22;17.67;;;11.65;;
26484;SDS011;18083;50.560;7.262;2023-06-10T02:32:50;14.30;;;11.75;;
26484;SDS011;18083;50.560;7.262;2023-06-10T02:35:18;13.38;;;12.05;;
26484;SDS011;18083;50.560;7.262;2023-06-10T02:37:46;13.40;;;12.00;;
26484;SDS011;18083;50.560;7.262;2023-06-10T02:40:13;13.98;;;12.68;;
26484;SDS011;18083;50.560;7.262;2023-06-10T02:42:40;13.08;;;11.68;;
26484;SDS011;18083;50.560;7.262;2023-06-10T02:45:08;12.55;;;11.20;;
26484;SDS011;18083;50.560;7.262;2023-06-10T02:47:37;13.13;;;11.83;;
26484;SDS011;18083;50.560;7.262;2023-06-10T02:50:04;12.68;;;11.45;;
26484;SDS011;18083;50.560;7.262;2023-06-10T02:52:31;13.20;;;11.40;;
26484;SDS011;18083;50.560;7.262;2023-06-10T02:54:59;13.45;;;11.70;;
26484;SDS011;18083;50.560;7.262;2023-06-10T02:57:26;12.98;;;10.70;;
26484;SDS011;18083;50.560;7.262;2023-06-10T02:59:53;16.37;;;11.15;;
26484;SDS011;18083;50.560;7.262;2023-06-10T03:02:20;11.90;;;10.53;;
26484;SDS011;18083;50.560;7.262;2023-06-10T03:04:48;11.00;;;9.88;;
26484;SDS011;18083;50.560;7.262;2023-06-10T03:07:16;15.18;;;11.65;;
26484;SDS011;18083;50.560;7.262;2023-06-10T03:09:44;12.20;;;10.80;;
26484;SDS011;18083;50.560;7.262;2023-06-10T03:12:12;14.58;;;12.33;;
26484;SDS011;18083;50.560;7.262;2023-06-10T03:14:39;12.98;;;11.68;;
26484;SDS011;18083;50.560;7.262;2023-06-10T03:17:06;13.70;;;12.30;;
26484;SDS011;18083;50.560;7.262;2023-06-10T03:19:34;17.70;;;12.47;;
26484;SDS011;18083;50.560;7.262;2023-06-10T03:22:08;13.25;;;11.95;;
26484;SDS011;18083;50.560;7.262;2023-06-10T03:24:35;12.75;;;11.45;;
26484;SDS011;18083;50.560;7.262;2023-06-10T03:27:02;20.20;;;11.68;;
26484;SDS011;18083;50.560;7.262;2023-06-10T03:29:31;12.85;;;11.45;;
26484;SDS011;18083;50.560;7.262;2023-06-10T03:31:58;13.25;;;11.80;;
26484;SDS011;18083;50.560;7.262;2023-06-10T03:34:25;16.95;;;12.30;;
26484;SDS011;18083;50.560;7.262;2023-06-10T03:36:53;16.27;;;11.95;;
26484;SDS011;18083;50.560;7.262;2023-06-10T03:39:20;14.07;;;12.63;;
26484;SDS011;18083;50.560;7.262;2023-06-10T03:41:47;16.50;;;12.63;;
26484;SDS011;18083;50.560;7.262;2023-06-10T03:44:14;16.17;;;12.55;;
26484;SDS011;18083;50.560;7.262;2023-06-10T03:46:42;19.25;;;13.00;;
26484;SDS011;18083;50.560;7.262;2023-06-10T03:49:09;16.20;;;12.90;;
26484;SDS011;18083;50.560;7.262;2023-06-10T03:51:37;13.30;;;11.88;;
26484;SDS011;18083;50.560;7.262;2023-06-10T03:54:04;17.12;;;12.78;;
26484;SDS011;18083;50.560;7.262;2023-06-10T03:56:31;17.62;;;14.78;;
26484;SDS011;18083;50.560;7.262;2023-06-10T03:58:59;12.70;;;11.48;;
26484;SDS011;18083;50.560;7.262;2023-06-10T04:01:27;15.08;;;12.70;;
26484;SDS011;18083;50.560;7.262;2023-06-10T04:03:55;13.72;;;12.33;;
26484;SDS011;18083;50.560;7.262;2023-06-10T04:06:22;17.37;;;13.08;;
26484;SDS011;18083;50.560;7.262;2023-06-10T04:08:51;15.05;;;12.20;;
26484;SDS011;18083;50.560;7.262;2023-06-10T04:11:18;15.85;;;11.93;;
26484;SDS011;18083;50.560;7.262;2023-06-10T04:13:46;16.70;;;12.65;;
26484;SDS011;18083;50.560;7.262;2023-06-10T04:16:13;15.85;;;12.47;;
26484;SDS011;18083;50.560;7.262;2023-06-10T04:18:40;14.78;;;11.95;;
26484;SDS011;18083;50.560;7.262;2023-06-10T04:21:08;12.50;;;11.30;;
26484;SDS011;18083;50.560;7.262;2023-06-10T04:23:35;14.95;;;11.50;;
26484;SDS011;18083;50.560;7.262;2023-06-10T04:26:05;12.50;;;11.20;;
26484;SDS011;18083;50.560;7.262;2023-06-10T04:28:33;13.78;;;11.50;;
26484;SDS011;18083;50.560;7.262;2023-06-10T04:31:00;14.25;;;12.03;;
26484;SDS011;18083;50.560;7.262;2023-06-10T04:33:30;15.38;;;11.05;;
26484;SDS011;18083;50.560;7.262;2023-06-10T04:35:57;16.67;;;12.10;;
26484;SDS011;18083;50.560;7.262;2023-06-10T04:38:25;13.38;;;11.65;;
26484;SDS011;18083;50.560;7.262;2023-06-10T04:40:52;14.70;;;11.35;;
26484;SDS011;18083;50.560;7.262;2023-06-10T04:43:20;15.13;;;12.37;;
26484;SDS011;18083;50.560;7.262;2023-06-10T04:45:47;16.25;;;11.93;;
26484;SDS011;18083;50.560;7.262;2023-06-10T04:48:14;13.35;;;12.03;;
26484;SDS011;18083;50.560;7.262;2023-06-10T04:50:41;11.45;;;10.38;;
26484;SDS011;18083;50.560;7.262;2023-06-10T04:53:09;15.35;;;10.75;;
26484;SDS011;18083;50.560;7.262;2023-06-10T04:55:36;12.47;;;11.28;;
26484;SDS011;18083;50.560;7.262;2023-06-10T04:58:03;16.20;;;11.48;;
26484;SDS011;18083;50.560;7.262;2023-06-10T05:00:31;14.93;;;11.70;;
26484;SDS011;18083;50.560;7.262;2023-06-10T05:02:58;14.95;;;12.20;;
26484;SDS011;18083;50.560;7.262;2023-06-10T05:05:25;14.78;;;11.85;;
26484;SDS011;18083;50.560;7.262;2023-06-10T05:07:53;13.15;;;11.73;;
26484;SDS011;18083;50.560;7.262;2023-06-10T05:10:20;17.85;;;11.83;;
26484;SDS011;18083;50.560;7.262;2023-06-10T05:12:47;18.87;;;13.25;;
26484;SDS011;18083;50.560;7.262;2023-06-10T05:15:14;16.10;;;12.88;;
26484;SDS011;18083;50.560;7.262;2023-06-10T05:17:42;14.18;;;11.88;;
26484;SDS011;18083;50.560;7.262;2023-06-10T05:20:09;13.38;;;10.82;;
26484;SDS011;18083;50.560;7.262;2023-06-10T05:22:37;13.28;;;11.70;;
26484;SDS011;18083;50.560;7.262;2023-06-10T05:25:04;15.03;;;11.22;;
26484;SDS011;18083;50.560;7.262;2023-06-10T05:27:32;12.00;;;10.80;;
26484;SDS011;18083;50.560;7.262;2023-06-10T05:29:59;12.90;;;11.68;;
26484;SDS011;18083;50.560;7.262;2023-06-10T05:32:27;16.23;;;11.05;;
26484;SDS011;18083;50.560;7.262;2023-06-10T05:34:54;11.90;;;10.65;;
26484;SDS011;18083;50.560;7.262;2023-06-10T05:37:22;12.98;;;11.65;;
26484;SDS011;18083;50.560;7.262;2023-06-10T05:39:50;11.15;;;10.00;;
26484;SDS011;18083;50.560;7.262;2023-06-10T05:42:17;16.93;;;10.98;;
26484;SDS011;18083;50.560;7.262;2023-06-10T05:44:44;11.15;;;9.83;;
26484;SDS011;18083;50.560;7.262;2023-06-10T05:47:11;14.60;;;10.78;;
26484;SDS011;18083;50.560;7.262;2023-06-10T05:49:39;17.35;;;9.90;;
26484;SDS011;18083;50.560;7.262;2023-06-10T05:52:06;11.90;;;10.78;;
26484;SDS011;18083;50.560;7.262;2023-06-10T05:54:33;11.70;;;9.68;;
26484;SDS011;18083;50.560;7.262;2023-06-10T05:57:01;14.03;;;10.20;;
26484;SDS011;18083;50.560;7.262;2023-06-10T05:59:29;11.45;;;10.20;;
26484;SDS011;18083;50.560;7.262;2023-06-10T06:01:58;12.15;;;9.73;;
26484;SDS011;18083;50.560;7.262;2023-06-10T06:04:25;12.90;;;9.83;;
26484;SDS011;18083;50.560;7.262;2023-06-10T06:06:52;11.53;;;10.32;;
26484;SDS011;18083;50.560;7.262;2023-06-10T06:09:21;11.40;;;9.20;;
26484;SDS011;18083;50.560;7.262;2023-06-10T06:11:48;11.18;;;9.35;;
26484;SDS011;18083;50.560;7.262;2023-06-10T06:14:15;13.13;;;10.03;;
26484;SDS011;18083;50.560;7.262;2023-06-10T06:16:43;13.43;;;9.10;;
26484;SDS011;18083;50.560;7.262;2023-06-10T06:19:10;11.43;;;9.65;;
26484;SDS011;18083;50.560;7.262;2023-06-10T06:21:37;10.48;;;9.48;;
26484;SDS011;18083;50.560;7.262;2023-06-10T06:24:05;11.30;;;9.00;;
26484;SDS011;18083;50.560;7.262;2023-06-10T06:26:32;9.75;;;8.73;;
26484;SDS011;18083;50.560;7.262;2023-06-10T06:28:59;11.30;;;8.60;;
26484;SDS011;18083;50.560;7.262;2023-06-10T06:31:27;9.08;;;8.08;;
26484;SDS011;18083;50.560;7.262;2023-06-10T06:33:54;12.00;;;9.88;;
26484;SDS011;18083;50.560;7.262;2023-06-10T06:36:21;11.70;;;9.95;;
26484;SDS011;18083;50.560;7.262;2023-06-10T06:38:48;9.38;;;8.55;;
26484;SDS011;18083;50.560;7.262;2023-06-10T06:41:16;11.75;;;8.85;;
26484;SDS011;18083;50.560;7.262;2023-06-10T06:43:43;10.00;;;9.03;;
26484;SDS011;18083;50.560;7.262;2023-06-10T06:46:10;11.22;;;9.05;;
26484;SDS011;18083;50.560;7.262;2023-06-10T06:48:38;9.53;;;8.60;;
26484;SDS011;18083;50.560;7.262;2023-06-10T06:51:05;8.58;;;7.78;;
26484;SDS011;18083;50.560;7.262;2023-06-10T06:53:32;10.18;;;8.33;;
26484;SDS011;18083;50.560;7.262;2023-06-10T06:55:59;11.40;;;8.38;;
26484;SDS011;18083;50.560;7.262;2023-06-10T06:58:27;8.33;;;7.55;;
26484;SDS011;18083;50.560;7.262;2023-06-10T07:00:54;10.63;;;7.55;;
26484;SDS011;18083;50.560;7.262;2023-06-10T07:03:21;11.63;;;7.80;;
26484;SDS011;18083;50.560;7.262;2023-06-10T07:05:49;9.30;;;7.33;;
26484;SDS011;18083;50.560;7.262;2023-06-10T07:08:16;8.13;;;7.42;;
26484;SDS011;18083;50.560;7.262;2023-06-10T07:10:44;8.83;;;7.97;;
26484;SDS011;18083;50.560;7.262;2023-06-10T07:13:11;9.28;;;6.83;;
26484;SDS011;18083;50.560;7.262;2023-06-10T07:15:38;8.83;;;8.00;;
26484;SDS011;18083;50.560;7.262;2023-06-10T07:18:06;7.37;;;6.75;;
26484;SDS011;18083;50.560;7.262;2023-06-10T07:20:33;9.03;;;7.15;;
26484;SDS011;18083;50.560;7.262;2023-06-10T07:23:00;9.88;;;7.97;;
26484;SDS011;18083;50.560;7.262;2023-06-10T07:25:28;12.88;;;7.92;;
26484;SDS011;18083;50.560;7.262;2023-06-10T07:27:55;8.98;;;7.50;;
26484;SDS011;18083;50.560;7.262;2023-06-10T07:30:22;8.95;;;7.05;;
26484;SDS011;18083;50.560;7.262;2023-06-10T07:32:50;9.48;;;6.78;;
26484;SDS011;18083;50.560;7.262;2023-06-10T07:35:18;7.62;;;6.20;;
26484;SDS011;18083;50.560;7.262;2023-06-10T07:37:45;7.40;;;6.70;;
26484;SDS011;18083;50.560;7.262;2023-06-10T07:40:13;12.13;;;7.05;;
26484;SDS011;18083;50.560;7.262;2023-06-10T07:42:40;9.38;;;7.25;;
26484;SDS011;18083;50.560;7.262;2023-06-10T07:45:08;9.88;;;6.92;;
26484;SDS011;18083;50.560;7.262;2023-06-10T07:47:35;7.50;;;6.22;;
26484;SDS011;18083;50.560;7.262;2023-06-10T07:50:02;8.93;;;8.13;;
26484;SDS011;18083;50.560;7.262;2023-06-10T07:52:30;10.18;;;7.45;;
26484;SDS011;18083;50.560;7.262;2023-06-10T07:54:57;8.55;;;6.78;;
26484;SDS011;18083;50.560;7.262;2023-06-10T07:57:24;7.75;;;7.03;;
26484;SDS011;18083;50.560;7.262;2023-06-10T07:59:52;7.28;;;6.58;;
26484;SDS011;18083;50.560;7.262;2023-06-10T08:02:21;8.90;;;6.90;;
26484;SDS011;18083;50.560;7.262;2023-06-10T08:04:48;7.53;;;6.58;;
26484;SDS011;18083;50.560;7.262;2023-06-10T08:07:15;6.87;;;6.17;;
26484;SDS011;18083;50.560;7.262;2023-06-10T08:09:44;7.83;;;6.78;;
26484;SDS011;18083;50.560;7.262;2023-06-10T08:12:11;7.33;;;6.28;;
26484;SDS011;18083;50.560;7.262;2023-06-10T08:14:39;9.03;;;6.50;;
26484;SDS011;18083;50.560;7.262;2023-06-10T08:17:06;7.78;;;6.17;;
26484;SDS011;18083;50.560;7.262;2023-06-10T08:19:33;9.78;;;6.55;;
26484;SDS011;18083;50.560;7.262;2023-06-10T08:22:01;7.70;;;6.65;;
26484;SDS011;18083;50.560;7.262;2023-06-10T08:24:28;9.18;;;6.97;;
26484;SDS011;18083;50.560;7.262;2023-06-10T08:26:55;7.67;;;6.90;;
26484;SDS011;18083;50.560;7.262;2023-06-10T08:29:23;7.62;;;6.62;;
26484;SDS011;18083;50.560;7.262;2023-06-10T08:31:50;11.65;;;7.78;;
26484;SDS011;18083;50.560;7.262;2023-06-10T08:34:18;7.92;;;7.20;;
26484;SDS011;18083;50.560;7.262;2023-06-10T08:36:45;8.30;;;7.50;;
26484;SDS011;18083;50.560;7.262;2023-06-10T08:39:12;12.37;;;6.47;;
26484;SDS011;18083;50.560;7.262;2023-06-10T08:41:42;9.33;;;7.28;;
26484;SDS011;18083;50.560;7.262;2023-06-10T08:46:37;11.00;;;6.90;;
26484;SDS011;18083;50.560;7.262;2023-06-10T08:49:05;7.25;;;6.55;;
26484;SDS011;18083;50.560;7.262;2023-06-10T08:51:36;8.03;;;7.00;;
26484;SDS011;18083;50.560;7.262;2023-06-10T08:54:05;8.90;;;6.90;;
26484;SDS011;18083;50.560;7.262;2023-06-10T08:56:32;7.67;;;6.42;;
26484;SDS011;18083;50.560;7.262;2023-06-10T08:59:01;9.68;;;7.67;;
26484;SDS011;18083;50.560;7.262;2023-06-10T09:01:29;8.50;;;7.40;;
26484;SDS011;18083;50.560;7.262;2023-06-10T09:03:57;7.95;;;7.17;;
26484;SDS011;18083;50.560;7.262;2023-06-10T09:06:25;7.40;;;6.80;;
26484;SDS011;18083;50.560;7.262;2023-06-10T09:08:53;8.15;;;6.85;;
26484;SDS011;18083;50.560;7.262;2023-06-10T09:11:21;7.78;;;7.08;;
26484;SDS011;18083;50.560;7.262;2023-06-10T09:13:48;8.15;;;7.47;;
26484;SDS011;18083;50.560;7.262;2023-06-10T09:16:15;7.90;;;6.72;;
26484;SDS011;18083;50.560;7.262;2023-06-10T09:18:43;10.30;;;6.97;;
26484;SDS011;18083;50.560;7.262;2023-06-10T09:21:10;7.17;;;6.42;;
26484;SDS011;18083;50.560;7.262;2023-06-10T09:23:38;7.55;;;6.87;;
26484;SDS011;18083;50.560;7.262;2023-06-10T09:26:07;8.25;;;6.90;;
26484;SDS011;18083;50.560;7.262;2023-06-10T09:28:34;7.25;;;6.65;;
26484;SDS011;18083;50.560;7.262;2023-06-10T09:31:02;10.55;;;6.53;;
26484;SDS011;18083;50.560;7.262;2023-06-10T09:33:30;8.98;;;6.60;;
26484;SDS011;18083;50.560;7.262;2023-06-10T09:35:59;7.95;;;7.17;;
26484;SDS011;18083;50.560;7.262;2023-06-10T09:38:31;8.98;;;7.33;;
26484;SDS011;18083;50.560;7.262;2023-06-10T09:40:58;7.55;;;6.87;;
26484;SDS011;18083;50.560;7.262;2023-06-10T09:43:40;7.85;;;7.12;;
26484;SDS011;18083;50.560;7.262;2023-06-10T09:46:17;7.25;;;6.47;;
26484;SDS011;18083;50.560;7.262;2023-06-10T09:48:40;6.83;;;6.22;;
26484;SDS011;18083;50.560;7.262;2023-06-10T09:51:08;7.00;;;6.30;;
26484;SDS011;18083;50.560;7.262;2023-06-10T09:53:34;9.75;;;7.00;;
26484;SDS011;18083;50.560;7.262;2023-06-10T09:56:01;7.58;;;6.45;;
26484;SDS011;18083;50.560;7.262;2023-06-10T09:58:35;7.22;;;6.53;;
26484;SDS011;18083;50.560;7.262;2023-06-10T10:01:09;6.20;;;5.70;;
26484;SDS011;18083;50.560;7.262;2023-06-10T10:03:43;7.45;;;6.85;;
26484;SDS011;18083;50.560;7.262;2023-06-10T10:06:11;7.70;;;6.53;;
26484;SDS011;18083;50.560;7.262;2023-06-10T10:08:39;8.38;;;6.78;;
26484;SDS011;18083;50.560;7.262;2023-06-10T10:11:06;8.78;;;6.30;;
26484;SDS011;18083;50.560;7.262;2023-06-10T10:13:34;6.60;;;6.00;;
26484;SDS011;18083;50.560;7.262;2023-06-10T10:16:04;6.87;;;6.22;;
26484;SDS011;18083;50.560;7.262;2023-06-10T10:18:31;7.33;;;6.72;;
26484;SDS011;18083;50.560;7.262;2023-06-10T10:21:00;7.55;;;6.45;;
26484;SDS011;18083;50.560;7.262;2023-06-10T10:23:32;6.58;;;5.92;;
26484;SDS011;18083;50.560;7.262;2023-06-10T10:25:59;6.72;;;5.75;;
26484;SDS011;18083;50.560;7.262;2023-06-10T10:28:29;10.28;;;5.97;;
26484;SDS011;18083;50.560;7.262;2023-06-10T10:30:59;7.15;;;5.62;;
26484;SDS011;18083;50.560;7.262;2023-06-10T10:33:28;6.28;;;5.78;;
26484;SDS011;18083;50.560;7.262;2023-06-10T10:35:53;8.10;;;5.37;;
26484;SDS011;18083;50.560;7.262;2023-06-10T10:38:21;5.67;;;5.17;;
26484;SDS011;18083;50.560;7.262;2023-06-10T10:40:49;6.03;;;5.45;;
26484;SDS011;18083;50.560;7.262;2023-06-10T10:43:17;6.33;;;5.67;;
26484;SDS011;18083;50.560;7.262;2023-06-10T10:45:57;6.10;;;5.45;;
26484;SDS011;18083;50.560;7.262;2023-06-10T10:48:16;6.80;;;5.78;;
26484;SDS011;18083;50.560;7.262;2023-06-10T10:50:43;7.10;;;5.15;;
26484;SDS011;18083;50.560;7.262;2023-06-10T10:53:12;6.10;;;5.08;;
26484;SDS011;18083;50.560;7.262;2023-06-10T10:55:41;5.60;;;5.03;;
26484;SDS011;18083;50.560;7.262;2023-06-10T10:58:10;6.60;;;6.00;;
26484;SDS011;18083;50.560;7.262;2023-06-10T11:00:41;5.60;;;5.10;;
26484;SDS011;18083;50.560;7.262;2023-06-10T11:03:06;6.80;;;5.08;;
26484;SDS011;18083;50.560;7.262;2023-06-10T11:05:38;6.25;;;4.87;;
26484;SDS011;18083;50.560;7.262;2023-06-10T11:08:07;6.20;;;5.30;;
26484;SDS011;18083;50.560;7.262;2023-06-10T11:10:38;5.97;;;5.28;;
26484;SDS011;18083;50.560;7.262;2023-06-10T11:13:06;5.80;;;5.30;;
26484;SDS011;18083;50.560;7.262;2023-06-10T11:15:38;5.33;;;4.92;;
26484;SDS011;18083;50.560;7.262;2023-06-10T11:18:19;7.83;;;5.87;;
26484;SDS011;18083;50.560;7.262;2023-06-10T11:20:44;7.87;;;5.75;;
26484;SDS011;18083;50.560;7.262;2023-06-10T11:23:35;7.03;;;4.78;;
26484;SDS011;18083;50.560;7.262;2023-06-10T11:25:41;5.62;;;5.12;;
26484;SDS011;18083;50.560;7.262;2023-06-10T11:28:18;4.87;;;4.47;;
26484;SDS011;18083;50.560;7.262;2023-06-10T11:30:37;7.20;;;5.37;;
26484;SDS011;18083;50.560;7.262;2023-06-10T11:33:04;6.25;;;4.87;;
26484;SDS011;18083;50.560;7.262;2023-06-10T11:35:32;8.30;;;5.08;;
26484;SDS011;18083;50.560;7.262;2023-06-10T11:38:00;7.05;;;5.15;;
26484;SDS011;18083;50.560;7.262;2023-06-10T11:40:27;6.50;;;5.00;;
26484;SDS011;18083;50.560;7.262;2023-06-10T11:42:56;10.88;;;5.78;;
26484;SDS011;18083;50.560;7.262;2023-06-10T11:45:24;5.20;;;4.80;;
26484;SDS011;18083;50.560;7.262;2023-06-10T11:47:56;6.10;;;4.95;;
26484;SDS011;18083;50.560;7.262;2023-06-10T11:50:28;10.10;;;5.35;;
26484;SDS011;18083;50.560;7.262;2023-06-10T11:52:55;5.35;;;4.85;;
26484;SDS011;18083;50.560;7.262;2023-06-10T11:55:25;7.28;;;4.80;;
26484;SDS011;18083;50.560;7.262;2023-06-10T11:57:52;5.15;;;4.65;;
26484;SDS011;18083;50.560;7.262;2023-06-10T12:00:21;5.17;;;4.67;;
26484;SDS011;18083;50.560;7.262;2023-06-10T12:02:56;4.75;;;4.30;;
26484;SDS011;18083;50.560;7.262;2023-06-10T12:05:24;5.65;;;5.15;;
26484;SDS011;18083;50.560;7.262;2023-06-10T12:08:07;9.15;;;5.40;;
26484;SDS011;18083;50.560;7.262;2023-06-10T12:10:20;5.45;;;4.83;;
26484;SDS011;18083;50.560;7.262;2023-06-10T12:12:47;6.60;;;5.92;;
26484;SDS011;18083;50.560;7.262;2023-06-10T12:15:23;4.87;;;4.47;;
26484;SDS011;18083;50.560;7.262;2023-06-10T12:17:44;5.33;;;4.75;;
26484;SDS011;18083;50.560;7.262;2023-06-10T12:20:30;5.15;;;4.75;;
26484;SDS011;18083;50.560;7.262;2023-06-10T12:22:55;4.47;;;4.17;;
26484;SDS011;18083;50.560;7.262;2023-06-10T12:25:26;5.87;;;4.47;;
26484;SDS011;18083;50.560;7.262;2023-06-10T12:27:53;5.92;;;4.35;;
26484;SDS011;18083;50.560;7.262;2023-06-10T12:30:22;4.72;;;4.33;;
26484;SDS011;18083;50.560;7.262;2023-06-10T12:32:50;4.92;;;4.35;;
26484;SDS011;18083;50.560;7.262;2023-06-10T12:35:20;4.50;;;4.10;;
26484;SDS011;18083;50.560;7.262;2023-06-10T12:37:59;5.10;;;4.60;;
26484;SDS011;18083;50.560;7.262;2023-06-10T12:40:27;5.58;;;4.50;;
26484;SDS011;18083;50.560;7.262;2023-06-10T12:42:55;5.67;;;4.42;;
26484;SDS011;18083;50.560;7.262;2023-06-10T12:45:31;5.33;;;4.25;;
26484;SDS011;18083;50.560;7.262;2023-06-10T12:48:10;7.12;;;4.35;;
26484;SDS011;18083;50.560;7.262;2023-06-10T12:50:39;5.72;;;4.65;;
26484;SDS011;18083;50.560;7.262;2023-06-10T12:53:07;5.50;;;4.92;;
26484;SDS011;18083;50.560;7.262;2023-06-10T12:55:34;4.92;;;4.53;;
26484;SDS011;18083;50.560;7.262;2023-06-10T12:58:02;4.65;;;4.25;;
26484;SDS011;18083;50.560;7.262;2023-06-10T13:00:29;5.08;;;4.58;;
26484;SDS011;18083;50.560;7.262;2023-06-10T13:02:58;5.78;;;4.87;;
26484;SDS011;18083;50.560;7.262;2023-06-10T13:05:27;5.92;;;5.33;;
26484;SDS011;18083;50.560;7.262;2023-06-10T13:07:54;5.50;;;5.00;;
26484;SDS011;18083;50.560;7.262;2023-06-10T13:10:21;6.65;;;4.72;;
26484;SDS011;18083;50.560;7.262;2023-06-10T13:12:49;6.17;;;5.05;;
26484;SDS011;18083;50.560;7.262;2023-06-10T13:15:17;5.50;;;4.78;;
26484;SDS011;18083;50.560;7.262;2023-06-10T13:17:44;5.22;;;4.72;;
26484;SDS011;18083;50.560;7.262;2023-06-10T13:20:13;4.67;;;4.20;;
26484;SDS011;18083;50.560;7.262;2023-06-10T13:22:40;5.22;;;4.78;;
26484;SDS011;18083;50.560;7.262;2023-06-10T13:25:08;4.40;;;3.98;;
26484;SDS011;18083;50.560;7.262;2023-06-10T13:27:36;5.53;;;3.98;;
26484;SDS011;18083;50.560;7.262;2023-06-10T13:30:08;5.03;;;4.62;;
26484;SDS011;18083;50.560;7.262;2023-06-10T13:32:36;5.40;;;4.92;;
26484;SDS011;18083;50.560;7.262;2023-06-10T13:35:03;4.55;;;4.15;;
26484;SDS011;18083;50.560;7.262;2023-06-10T13:37:31;8.85;;;4.08;;
26484;SDS011;18083;50.560;7.262;2023-06-10T13:39:59;4.22;;;3.85;;
26484;SDS011;18083;50.560;7.262;2023-06-10T13:42:27;10.80;;;4.80;;
26484;SDS011;18083;50.560;7.262;2023-06-10T13:44:55;4.25;;;3.75;;
26484;SDS011;18083;50.560;7.262;2023-06-10T13:47:24;5.47;;;4.75;;
26484;SDS011;18083;50.560;7.262;2023-06-10T13:49:51;5.47;;;4.70;;
26484;SDS011;18083;50.560;7.262;2023-06-10T13:52:19;5.72;;;4.28;;
26484;SDS011;18083;50.560;7.262;2023-06-10T13:54:46;5.58;;;4.20;;
26484;SDS011;18083;50.560;7.262;2023-06-10T13:57:13;7.75;;;4.15;;
26484;SDS011;18083;50.560;7.262;2023-06-10T13:59:41;6.22;;;4.47;;
26484;SDS011;18083;50.560;7.262;2023-06-10T14:02:08;4.80;;;4.22;;
26484;SDS011;18083;50.560;7.262;2023-06-10T14:04:35;6.50;;;4.37;;
26484;SDS011;18083;50.560;7.262;2023-06-10T14:07:03;5.90;;;5.03;;
26484;SDS011;18083;50.560;7.262;2023-06-10T14:09:30;4.58;;;4.17;;
26484;SDS011;18083;50.560;7.262;2023-06-10T14:11:57;5.12;;;4.62;;
26484;SDS011;18083;50.560;7.262;2023-06-10T14:14:24;5.28;;;4.78;;
26484;SDS011;18083;50.560;7.262;2023-06-10T14:16:52;4.42;;;4.05;;
26484;SDS011;18083;50.560;7.262;2023-06-10T14:19:19;4.62;;;4.12;;
26484;SDS011;18083;50.560;7.262;2023-06-10T14:21:46;6.03;;;4.10;;
26484;SDS011;18083;50.560;7.262;2023-06-10T14:24:15;5.83;;;4.50;;
26484;SDS011;18083;50.560;7.262;2023-06-10T14:26:42;4.65;;;4.25;;
26484;SDS011;18083;50.560;7.262;2023-06-10T14:29:10;5.83;;;4.17;;
26484;SDS011;18083;50.560;7.262;2023-06-10T14:31:39;5.37;;;4.05;;
26484;SDS011;18083;50.560;7.262;2023-06-10T14:34:06;5.17;;;4.78;;
26484;SDS011;18083;50.560;7.262;2023-06-10T14:36:36;4.75;;;4.35;;
26484;SDS011;18083;50.560;7.262;2023-06-10T14:39:03;5.87;;;5.08;;
26484;SDS011;18083;50.560;7.262;2023-06-10T14:41:31;5.40;;;4.10;;
26484;SDS011;18083;50.560;7.262;2023-06-10T14:43:58;5.80;;;3.80;;